KBWI/BWI METAR and TAF weather

Enter ICAO airport designator
Station Type Date Time Source
KBWI METAR 2022/11/30 09:54 UTC NOAA

KBWI 300954Z 13004KT 10SM BKN012 OVC034 09/07 A3004 RMK AO2 SLP173 T00940072


Station Type Date Time Source
KBWI Decoded METAR 2022/11/30 09:54 UTC NOAA

BALTIMORE-WASHINGTON INTERNATIONAL , MD, United States (KBWI) 39-10N 076-41W 59M
Nov 30, 2022 - 04:54 AM EST / 2022.11.30 0954 UTC
Wind: from the SE (130 degrees) at 5 MPH (4 KT):0
Visibility: 10 mile(s):0
Sky conditions: overcast
Temperature: 48.9 F (9.4 C)
Dew Point: 45.0 F (7.2 C)
Relative Humidity: 86%
Pressure (altimeter): 30.04 in. Hg (1017 hPa)
ob: KBWI 300954Z 13004KT 10SM BKN012 OVC034 09/07 A3004 RMK AO2 SLP173 T00940072
cycle: 10

Station Type Date Time Source
KBWI TAF 2022/11/30 09:58 UTC NOAA

TAF
AMD KBWI 300857Z 3009/0112 13005KT P6SM BKN015 OVC050
FM301100 15008G16KT 6SM -RA BKN010 OVC050 WS020/19045KT
FM301300 15010G20KT 3SM RA BKN008 OVC025 WS020/19055KT
FM301600 17015G25KT 6SM -SHRA BKN015 OVC050
FM302100 29018G32KT P6SM SCT035
FM010400 29012G24KT P6SM SKC

Example: see airport list